createdAt,value
2022-11-03T00:01:46.655Z,59.82
2022-11-03T00:04:15.337Z,60.03
2022-11-03T00:06:44.180Z,59.74
2022-11-03T00:09:12.682Z,59.98
2022-11-03T00:11:41.504Z,59.68
2022-11-03T00:14:09.423Z,59.85
2022-11-03T00:16:36.469Z,59.70
2022-11-03T00:19:03.390Z,59.95
2022-11-03T00:21:30.482Z,59.37
2022-11-03T00:23:57.215Z,59.07
2022-11-03T00:26:25.091Z,59.55
2022-11-03T00:28:54.108Z,59.42
2022-11-03T00:31:26.891Z,59.75
2022-11-03T00:33:54.865Z,59.80
2022-11-03T00:36:26.112Z,60.10
2022-11-03T00:38:52.913Z,60.15
2022-11-03T00:41:21.056Z,60.09
2022-11-03T00:43:48.134Z,60.59
2022-11-03T00:46:14.749Z,60.54
2022-11-03T00:48:41.540Z,60.41
2022-11-03T00:51:11.053Z,60.98
2022-11-03T00:53:45.831Z,60.44
2022-11-03T00:56:17.683Z,60.21
2022-11-03T00:58:44.413Z,60.08
2022-11-03T01:01:13.390Z,59.87
2022-11-03T01:03:41.913Z,59.89
2022-11-03T01:06:28.370Z,59.74
2022-11-03T01:08:55.026Z,60.21
2022-11-03T01:11:42.419Z,59.99
2022-11-03T01:14:10.832Z,60.24
2022-11-03T01:16:37.509Z,60.11
2022-11-03T01:19:04.379Z,60.51
2022-11-03T01:21:30.961Z,60.06
2022-11-03T01:24:01.735Z,59.95
2022-11-03T01:26:29.025Z,59.94
2022-11-03T01:28:55.604Z,59.50
2022-11-03T01:31:24.740Z,59.92
2022-11-03T01:33:53.226Z,60.07
2022-11-03T01:36:20.429Z,60.52
2022-11-03T01:38:47.108Z,60.67
2022-11-03T01:41:16.922Z,60.59
2022-11-03T01:43:43.712Z,60.69
2022-11-03T01:46:12.944Z,60.32
2022-11-03T01:48:44.532Z,60.91
2022-11-03T01:51:14.858Z,60.99
2022-11-03T01:53:47.001Z,60.77
2022-11-03T01:56:15.914Z,61.28
2022-11-03T01:58:45.003Z,61.70
2022-11-03T02:01:12.652Z,61.02
2022-11-03T02:03:42.779Z,60.91
2022-11-03T02:06:10.078Z,60.90
2022-11-03T02:08:44.001Z,61.80
2022-11-03T02:11:29.100Z,61.77
2022-11-03T02:13:55.873Z,61.23
2022-11-03T02:16:25.409Z,61.09
2022-11-03T02:18:54.251Z,60.96
2022-11-03T02:21:44.055Z,61.38
2022-11-03T02:24:13.520Z,61.39
2022-11-03T02:26:42.170Z,60.96
2022-11-03T02:29:08.809Z,60.89
2022-11-03T02:31:41.657Z,60.73
2022-11-03T02:34:21.578Z,60.91
2022-11-03T02:37:04.728Z,61.21
2022-11-03T02:39:37.477Z,61.07
2022-11-03T02:42:05.271Z,61.26
2022-11-03T02:44:34.103Z,61.64
2022-11-03T02:47:05.856Z,61.19
2022-11-03T02:49:37.682Z,61.76
2022-11-03T02:52:06.410Z,61.80
2022-11-03T02:54:39.013Z,62.19
2022-11-03T02:57:16.513Z,61.66
2022-11-03T03:00:06.411Z,61.86
2022-11-03T03:02:52.901Z,61.71
2022-11-03T03:05:23.060Z,61.52
2022-11-03T03:07:55.474Z,61.73
2022-11-03T03:10:26.585Z,61.18
2022-11-03T03:12:56.451Z,61.34
2022-11-03T03:15:38.878Z,61.47
2022-11-03T03:18:31.396Z,61.26
2022-11-03T03:21:21.069Z,61.28
2022-11-03T03:23:55.661Z,61.51
2022-11-03T03:26:33.175Z,61.52
2022-11-03T03:29:10.991Z,61.86
2022-11-03T03:31:40.917Z,61.76
2022-11-03T03:34:23.794Z,61.73
2022-11-03T03:36:58.227Z,61.22
2022-11-03T03:39:28.371Z,61.18
2022-11-03T03:41:56.707Z,61.36
2022-11-03T03:44:24.865Z,61.44
2022-11-03T03:46:58.278Z,61.12
2022-11-03T03:49:24.984Z,61.41
2022-11-03T03:51:51.732Z,61.25
2022-11-03T03:54:18.361Z,61.48
2022-11-03T03:57:00.708Z,61.25
2022-11-03T03:59:27.748Z,60.96
2022-11-03T04:01:54.440Z,61.13
2022-11-03T04:04:21.834Z,61.05
2022-11-03T04:06:48.383Z,61.44
2022-11-03T04:09:15.116Z,61.05
2022-11-03T04:12:00.834Z,61.01
2022-11-03T04:14:46.230Z,61.24
2022-11-03T04:17:54.225Z,61.07
2022-11-03T04:20:39.178Z,61.46
2022-11-03T04:23:05.787Z,61.33
2022-11-03T04:25:32.473Z,61.83
2022-11-03T04:27:59.370Z,61.08
2022-11-03T04:30:26.417Z,61.21
2022-11-03T04:32:54.462Z,61.51
2022-11-03T04:35:26.443Z,61.46
2022-11-03T04:38:16.550Z,60.93
2022-11-03T04:40:53.610Z,61.34
2022-11-03T04:43:24.544Z,61.25
2022-11-03T04:45:51.312Z,61.57
2022-11-03T04:48:25.235Z,61.89
2022-11-03T04:50:58.293Z,62.53
2022-11-03T04:53:28.262Z,62.81
2022-11-03T04:55:55.084Z,62.54
2022-11-03T04:58:34.589Z,62.56
2022-11-03T05:01:03.761Z,62.45
2022-11-03T05:03:33.910Z,62.21
2022-11-03T05:06:26.309Z,62.64
2022-11-03T05:09:00.421Z,62.41
2022-11-03T05:11:42.882Z,62.15
2022-11-03T05:14:22.145Z,62.15
2022-11-03T05:16:51.788Z,62.41
2022-11-03T05:19:23.014Z,62.24
2022-11-03T05:21:50.714Z,62.38
2022-11-03T05:24:21.236Z,62.60
2022-11-03T05:26:48.549Z,62.15
2022-11-03T05:29:26.517Z,62.78
2022-11-03T05:31:55.095Z,62.46
2022-11-03T05:34:32.327Z,62.33
2022-11-03T05:37:04.487Z,62.41
2022-11-03T05:39:36.683Z,62.53
2022-11-03T05:42:22.695Z,62.57
2022-11-03T05:44:51.583Z,62.58
2022-11-03T05:47:31.331Z,62.47
2022-11-03T05:50:08.048Z,62.76
2022-11-03T05:52:34.669Z,62.91
2022-11-03T05:55:02.200Z,62.82
2022-11-03T05:57:30.308Z,62.28
2022-11-03T05:59:57.083Z,62.91
2022-11-03T06:02:37.470Z,62.92
2022-11-03T06:05:34.391Z,63.60
2022-11-03T06:08:12.893Z,63.59
2022-11-03T06:10:45.170Z,63.37
2022-11-03T06:13:16.243Z,62.88
2022-11-03T06:15:45.691Z,62.87
2022-11-03T06:18:22.498Z,62.38
2022-11-03T06:20:52.669Z,62.09
2022-11-03T06:23:20.979Z,62.46
2022-11-03T06:25:48.810Z,62.31
2022-11-03T06:28:30.254Z,62.43
2022-11-03T06:30:57.402Z,62.14
2022-11-03T06:33:29.094Z,62.32
2022-11-03T06:36:01.757Z,61.97
2022-11-03T06:38:31.524Z,62.23
2022-11-03T06:40:58.861Z,62.50
2022-11-03T06:43:31.806Z,61.97
2022-11-03T06:46:01.103Z,62.56
2022-11-03T06:48:29.800Z,62.57
2022-11-03T06:50:58.962Z,61.92
2022-11-03T06:53:29.483Z,62.30
2022-11-03T06:55:56.409Z,62.20
2022-11-03T06:58:30.681Z,61.42
2022-11-03T07:01:03.653Z,61.77
2022-11-03T07:03:37.993Z,61.73
2022-11-03T07:06:10.750Z,61.43
2022-11-03T07:08:41.979Z,61.47
2022-11-03T07:11:30.084Z,61.83
2022-11-03T07:14:18.150Z,61.99
2022-11-03T07:16:48.625Z,62.12
2022-11-03T07:19:23.653Z,61.61
2022-11-03T07:21:51.279Z,61.74
2022-11-03T07:24:31.118Z,61.33
2022-11-03T07:27:14.107Z,61.19
2022-11-03T07:29:41.038Z,60.32
2022-11-03T07:32:23.147Z,60.58
2022-11-03T07:34:52.993Z,60.83
2022-11-03T07:37:25.961Z,60.17
2022-11-03T07:39:53.204Z,60.34
2022-11-03T07:42:23.062Z,60.45
2022-11-03T07:44:55.818Z,60.00
2022-11-03T07:47:28.031Z,59.90
2022-11-03T07:49:56.177Z,59.47
2022-11-03T07:52:24.858Z,59.47
2022-11-03T07:54:54.989Z,59.23
2022-11-03T07:57:23.292Z,59.07
2022-11-03T07:59:53.887Z,59.03
2022-11-03T08:02:20.692Z,58.58
2022-11-03T08:04:47.359Z,58.64
2022-11-03T08:07:13.862Z,58.25
2022-11-03T08:09:40.534Z,57.89
2022-11-03T08:12:07.793Z,57.41
2022-11-03T08:14:34.366Z,57.15
2022-11-03T08:17:00.956Z,56.75
2022-11-03T08:19:27.788Z,57.13
2022-11-03T08:21:54.471Z,57.33
2022-11-03T08:24:21.026Z,57.17
2022-11-03T08:26:47.605Z,57.72
2022-11-03T08:29:14.534Z,57.89
2022-11-03T08:31:41.641Z,57.57
2022-11-03T08:34:08.228Z,56.93
2022-11-03T08:36:34.902Z,56.87
2022-11-03T08:39:01.614Z,56.71
2022-11-03T08:41:28.350Z,56.68
2022-11-03T08:43:55.274Z,56.55
2022-11-03T08:46:21.988Z,56.68
2022-11-03T08:48:48.808Z,56.35
2022-11-03T08:51:16.365Z,56.74
2022-11-03T08:53:43.312Z,56.27
2022-11-03T08:56:12.896Z,55.97
2022-11-03T08:58:46.168Z,55.68
2022-11-03T09:01:13.081Z,55.14
2022-11-03T09:03:40.579Z,55.01
2022-11-03T09:06:09.289Z,54.04
2022-11-03T09:11:27.826Z,53.14
2022-11-03T09:13:54.479Z,52.70
2022-11-03T09:16:21.174Z,51.75
2022-11-03T09:18:47.818Z,52.02
2022-11-03T09:21:15.416Z,52.56
2022-11-03T09:23:42.031Z,52.02
2022-11-03T09:26:09.101Z,52.65
2022-11-03T09:28:35.761Z,52.11
2022-11-03T09:31:02.512Z,52.56
2022-11-03T09:33:29.765Z,52.56
2022-11-03T09:35:57.005Z,52.76
2022-11-03T09:38:23.764Z,52.13
2022-11-03T09:40:50.419Z,51.53
2022-11-03T09:43:17.080Z,52.26
2022-11-03T09:45:44.062Z,52.24
2022-11-03T09:48:13.089Z,52.68
2022-11-03T09:50:40.495Z,52.26
2022-11-03T09:53:11.600Z,51.50
2022-11-03T09:55:39.683Z,51.58
2022-11-03T09:58:14.805Z,50.79
2022-11-03T10:00:42.059Z,50.69
2022-11-03T10:03:14.384Z,51.01
2022-11-03T10:05:44.130Z,50.99
2022-11-03T10:08:28.121Z,51.41
2022-11-03T10:10:56.261Z,51.67
2022-11-03T10:13:52.967Z,51.21
2022-11-03T10:16:22.919Z,50.07
2022-11-03T10:18:50.178Z,49.49
2022-11-03T10:21:34.046Z,49.22
2022-11-03T10:24:00.975Z,48.70
2022-11-03T10:26:27.854Z,48.56
2022-11-03T10:29:05.960Z,48.30
2022-11-03T10:31:39.953Z,47.97
2022-11-03T10:34:39.513Z,47.37
2022-11-03T10:37:18.167Z,47.70
2022-11-03T10:39:45.950Z,47.54
2022-11-03T10:42:35.391Z,48.49
2022-11-03T10:45:20.389Z,49.36
2022-11-03T10:48:09.248Z,48.78
2022-11-03T10:50:35.936Z,48.79
2022-11-03T10:53:03.701Z,48.37
2022-11-03T10:55:30.858Z,47.98
2022-11-03T10:57:59.054Z,48.42
2022-11-03T11:00:25.724Z,48.77
2022-11-03T11:02:58.899Z,48.52
2022-11-03T11:05:25.717Z,48.60
2022-11-03T11:07:54.277Z,48.84
2022-11-03T11:10:27.009Z,49.56
2022-11-03T11:13:18.922Z,49.53
2022-11-03T11:15:47.637Z,50.20
2022-11-03T11:18:29.455Z,49.54
2022-11-03T11:20:59.686Z,49.61
2022-11-03T11:23:29.304Z,50.42
2022-11-03T11:26:14.499Z,50.88
2022-11-03T11:28:43.157Z,51.72
2022-11-03T11:31:33.392Z,52.03
2022-11-03T11:34:08.847Z,52.05
2022-11-03T11:36:37.056Z,51.04
2022-11-03T11:39:11.185Z,51.52
2022-11-03T11:42:15.477Z,51.13
2022-11-03T11:44:54.917Z,52.39
2022-11-03T11:47:32.151Z,53.18
2022-11-03T11:50:10.753Z,52.67
2022-11-03T11:52:47.483Z,52.49
2022-11-03T11:55:41.929Z,52.41
2022-11-03T11:58:20.380Z,52.59
2022-11-03T12:01:00.204Z,52.49
2022-11-03T12:03:49.365Z,52.69
2022-11-03T12:06:19.376Z,52.98
2022-11-03T12:08:45.913Z,52.69
2022-11-03T12:11:19.466Z,52.19
2022-11-03T12:13:49.246Z,53.20
2022-11-03T12:16:31.094Z,53.76
2022-11-03T12:19:18.280Z,54.69
2022-11-03T12:21:47.505Z,54.44
2022-11-03T12:24:32.567Z,54.12
2022-11-03T12:27:00.313Z,54.35
2022-11-03T12:29:26.953Z,54.54
2022-11-03T12:31:54.334Z,54.96
2022-11-03T12:34:23.868Z,53.98
2022-11-03T12:36:55.784Z,53.63
2022-11-03T12:39:22.820Z,53.30
2022-11-03T12:41:49.484Z,52.57
2022-11-03T12:44:16.174Z,52.10
2022-11-03T12:46:43.434Z,51.86
2022-11-03T12:49:10.135Z,52.19
2022-11-03T12:51:36.792Z,51.75
2022-11-03T12:54:03.508Z,51.88
2022-11-03T12:56:30.101Z,51.78
2022-11-03T12:58:56.823Z,52.36
2022-11-03T13:01:23.553Z,52.25
2022-11-03T13:03:50.257Z,52.05
2022-11-03T13:06:16.982Z,52.38
2022-11-03T13:08:44.789Z,52.77
2022-11-03T13:11:32.023Z,53.10
2022-11-03T13:13:59.250Z,53.04
2022-11-03T13:16:25.899Z,52.91
2022-11-03T13:18:52.753Z,52.95
2022-11-03T13:21:19.385Z,53.20
2022-11-03T13:23:45.966Z,53.79
2022-11-03T13:26:12.580Z,53.68
2022-11-03T13:28:39.305Z,53.81
2022-11-03T13:31:06.230Z,53.85
2022-11-03T13:33:32.806Z,54.23
2022-11-03T13:35:59.476Z,54.59
2022-11-03T13:38:26.260Z,54.71
2022-11-03T13:40:56.651Z,55.14
2022-11-03T13:43:24.900Z,55.33
2022-11-03T13:45:52.818Z,55.14
2022-11-03T13:49:21.543Z,55.70
2022-11-03T13:51:07.531Z,56.06
2022-11-03T13:56:22.265Z,55.99
2022-11-03T14:01:37.719Z,56.44
2022-11-03T14:06:51.957Z,56.13
2022-11-03T14:09:18.540Z,56.22
2022-11-03T14:12:03.739Z,55.62
2022-11-03T14:14:30.387Z,56.14
2022-11-03T14:16:57.129Z,55.97
2022-11-03T14:19:29.433Z,56.13
2022-11-03T14:22:02.604Z,55.91
2022-11-03T14:24:29.299Z,55.87
2022-11-03T14:26:55.874Z,55.75
2022-11-03T14:29:22.567Z,56.05
2022-11-03T14:31:49.204Z,55.93
2022-11-03T14:34:16.089Z,55.61
2022-11-03T14:36:42.921Z,55.51
2022-11-03T14:39:09.619Z,55.03
2022-11-03T14:41:54.804Z,55.52
2022-11-03T14:44:21.361Z,55.57
2022-11-03T14:46:48.047Z,56.01
2022-11-03T14:49:14.710Z,56.08
2022-11-03T14:51:41.318Z,55.80
2022-11-03T14:54:07.908Z,56.31
2022-11-03T14:56:34.483Z,56.13
2022-11-03T14:59:01.022Z,56.26
2022-11-03T15:01:27.904Z,56.10
2022-11-03T15:03:54.611Z,56.11
2022-11-03T15:06:21.645Z,56.29
2022-11-03T15:08:53.439Z,55.85
2022-11-03T15:11:22.882Z,56.49
2022-11-03T15:13:52.317Z,56.80
2022-11-03T15:16:19.121Z,56.34
2022-11-03T15:18:45.686Z,57.14
2022-11-03T15:21:12.414Z,57.34
2022-11-03T15:26:26.020Z,56.97
2022-11-03T15:28:52.708Z,57.08
2022-11-03T15:31:19.312Z,57.12
2022-11-03T15:33:45.962Z,57.11
2022-11-03T15:36:12.664Z,57.58
2022-11-03T15:38:39.581Z,57.05
2022-11-03T15:41:19.383Z,57.44
2022-11-03T15:43:47.170Z,57.60
2022-11-03T15:46:15.344Z,57.93
2022-11-03T15:48:43.193Z,58.24
2022-11-03T15:51:10.127Z,58.16
2022-11-03T15:53:36.994Z,58.30
2022-11-03T15:56:04.044Z,58.71
2022-11-03T15:58:34.422Z,58.97
2022-11-03T16:01:03.154Z,59.13
2022-11-03T16:03:31.807Z,59.06
2022-11-03T16:05:59.113Z,59.14
2022-11-03T16:08:26.191Z,58.91
2022-11-03T16:10:57.713Z,58.89
2022-11-03T16:13:25.073Z,58.85
2022-11-03T16:15:53.244Z,58.85
2022-11-03T16:18:20.350Z,58.77
2022-11-03T16:20:47.075Z,58.60
2022-11-03T16:23:13.679Z,58.85
2022-11-03T16:25:40.421Z,58.58
2022-11-03T16:28:07.297Z,58.69
2022-11-03T16:30:35.223Z,58.60
2022-11-03T16:33:01.777Z,58.90
2022-11-03T16:35:29.664Z,58.91
2022-11-03T16:37:56.559Z,58.84
2022-11-03T16:40:23.661Z,59.01
2022-11-03T16:42:50.523Z,58.95
2022-11-03T16:45:22.249Z,58.89
2022-11-03T16:47:50.563Z,58.72
2022-11-03T16:50:18.797Z,58.91
2022-11-03T16:52:46.644Z,59.14
2022-11-03T16:55:14.974Z,59.25
2022-11-03T16:57:42.360Z,59.46
2022-11-03T17:00:13.874Z,59.83
2022-11-03T17:02:40.897Z,59.57
2022-11-03T17:05:08.404Z,59.92
2022-11-03T17:07:35.237Z,60.23
2022-11-03T17:10:02.011Z,59.96
2022-11-03T17:12:28.572Z,60.58
2022-11-03T17:14:56.768Z,60.17
2022-11-03T17:17:24.245Z,60.73
2022-11-03T17:19:51.614Z,60.98
2022-11-03T17:22:18.401Z,60.74
2022-11-03T17:24:45.145Z,60.87
2022-11-03T17:27:11.853Z,61.37
2022-11-03T17:29:42.805Z,61.38
2022-11-03T17:32:18.705Z,62.16
2022-11-03T17:34:45.466Z,62.27
2022-11-03T17:37:12.155Z,62.48
2022-11-03T17:39:41.306Z,62.96
2022-11-03T17:42:23.242Z,63.17
2022-11-03T17:44:51.443Z,63.41
2022-11-03T17:47:19.915Z,63.85
2022-11-03T17:49:47.737Z,64.46
2022-11-03T17:52:28.660Z,65.00
2022-11-03T17:55:00.106Z,65.63
2022-11-03T17:57:27.150Z,66.06
2022-11-03T17:59:57.112Z,66.22
2022-11-03T18:02:30.684Z,67.02
2022-11-03T18:05:14.090Z,67.37
2022-11-03T18:07:43.631Z,68.14
2022-11-03T18:10:10.271Z,69.23
2022-11-03T18:12:59.058Z,70.51
2022-11-03T18:15:27.081Z,70.50
2022-11-03T18:17:53.834Z,70.11
2022-11-03T18:20:30.383Z,72.95
2022-11-03T18:23:15.593Z,73.67
2022-11-03T18:25:42.362Z,74.53
2022-11-03T18:28:09.267Z,75.14
2022-11-03T18:30:36.487Z,74.33
2022-11-03T18:33:03.205Z,74.04
2022-11-03T18:35:32.554Z,74.08
2022-11-03T18:37:59.632Z,73.85
2022-11-03T18:40:26.622Z,72.76
2022-11-03T18:42:53.249Z,73.14
2022-11-03T18:45:20.065Z,72.10
2022-11-03T18:47:46.813Z,73.38
2022-11-03T18:50:17.550Z,73.60
2022-11-03T18:52:52.007Z,73.13
2022-11-03T18:55:18.887Z,72.40
2022-11-03T18:57:45.499Z,71.55
2022-11-03T19:00:23.038Z,70.81
2022-11-03T19:02:50.638Z,70.48
2022-11-03T19:05:18.979Z,70.20
2022-11-03T19:07:49.193Z,70.06
2022-11-03T19:10:22.219Z,70.17
2022-11-03T19:12:49.086Z,70.54
2022-11-03T19:15:22.686Z,70.81
2022-11-03T19:17:57.413Z,70.67
2022-11-03T19:20:25.448Z,70.16
2022-11-03T19:22:52.746Z,70.59
2022-11-03T19:25:19.452Z,70.70
2022-11-03T19:27:47.903Z,70.75
2022-11-03T19:30:19.362Z,70.81
2022-11-03T19:32:48.945Z,71.17
2022-11-03T19:35:18.476Z,71.47
2022-11-03T19:37:46.683Z,71.54
2022-11-03T19:40:17.009Z,71.99
2022-11-03T19:42:45.001Z,72.42
2022-11-03T19:45:16.061Z,73.58
2022-11-03T19:48:22.404Z,74.85
2022-11-03T19:50:45.313Z,77.17
2022-11-03T19:53:18.557Z,77.48
2022-11-03T19:55:45.257Z,78.03
2022-11-03T19:58:18.726Z,79.08
2022-11-03T20:00:46.341Z,78.83
2022-11-03T20:03:13.544Z,79.63
2022-11-03T20:05:44.990Z,79.75
2022-11-03T20:08:18.778Z,79.00
2022-11-03T20:10:47.952Z,79.27
2022-11-03T20:13:23.853Z,79.07
2022-11-03T20:15:53.566Z,78.35
2022-11-03T20:18:23.212Z,78.21
2022-11-03T20:20:50.195Z,78.83
2022-11-03T20:23:26.201Z,79.04
2022-11-03T20:25:53.670Z,78.61
2022-11-03T20:28:28.265Z,78.99
2022-11-03T20:30:56.309Z,79.46
2022-11-03T20:33:24.713Z,78.80
2022-11-03T20:35:53.420Z,79.00
2022-11-03T20:38:20.884Z,79.20
2022-11-03T20:40:49.043Z,80.54
2022-11-03T20:43:38.387Z,80.92
2022-11-03T20:46:20.600Z,80.76
2022-11-03T20:48:47.432Z,80.87
2022-11-03T20:51:19.772Z,81.51
2022-11-03T20:53:47.883Z,81.07
2022-11-03T20:56:20.225Z,81.82
2022-11-03T20:58:47.444Z,82.03
2022-11-03T21:01:19.852Z,81.63
2022-11-03T21:03:59.341Z,81.09
2022-11-03T21:06:28.553Z,79.49
2022-11-03T21:08:55.374Z,79.45
2022-11-03T21:11:24.866Z,79.41
2022-11-03T21:13:52.724Z,78.83
2022-11-03T21:16:37.904Z,78.69
2022-11-03T21:19:40.447Z,78.36
2022-11-03T21:22:55.386Z,78.27
2022-11-03T21:25:23.949Z,77.73
2022-11-03T21:27:51.164Z,78.13
2022-11-03T21:30:18.557Z,76.82
2022-11-03T21:32:45.447Z,76.65
2022-11-03T21:35:17.579Z,76.19
2022-11-03T21:37:44.300Z,76.74
2022-11-03T21:40:12.041Z,78.63
2022-11-03T21:42:57.363Z,80.20
2022-11-03T21:45:24.117Z,81.48
2022-11-03T21:48:13.529Z,81.31
2022-11-03T21:50:41.074Z,81.75
2022-11-03T21:53:08.086Z,81.03
2022-11-03T21:55:35.430Z,80.47
2022-11-03T21:58:03.285Z,79.90
2022-11-03T22:00:30.257Z,79.85
2022-11-03T22:02:56.823Z,79.26
2022-11-03T22:05:23.486Z,79.14
2022-11-03T22:07:50.051Z,78.94
2022-11-03T22:10:17.838Z,78.90
2022-11-03T22:12:44.559Z,78.86
2022-11-03T22:15:29.897Z,78.07
2022-11-03T22:18:06.608Z,78.33
2022-11-03T22:21:03.001Z,77.78
2022-11-03T22:23:47.915Z,77.63
2022-11-03T22:26:34.932Z,77.88
2022-11-03T22:29:20.058Z,77.95
2022-11-03T22:31:46.763Z,77.63
2022-11-03T22:34:31.844Z,77.66
2022-11-03T22:36:58.467Z,77.17
2022-11-03T22:39:43.645Z,76.06
2022-11-03T22:42:31.991Z,77.12
2022-11-03T22:45:17.260Z,76.93
2022-11-03T22:47:44.101Z,77.04
2022-11-03T22:50:10.670Z,76.17
2022-11-03T22:52:37.401Z,76.52
2022-11-03T22:55:04.455Z,76.21
2022-11-03T22:57:31.041Z,75.04
2022-11-03T22:59:57.653Z,75.24
2022-11-03T23:02:24.341Z,74.69
2022-11-03T23:04:51.050Z,74.78
2022-11-03T23:07:17.614Z,74.60
2022-11-03T23:09:44.262Z,74.67
2022-11-03T23:12:11.320Z,74.33
2022-11-03T23:15:00.817Z,74.57
2022-11-03T23:17:48.358Z,74.49
2022-11-03T23:20:33.624Z,74.07
2022-11-03T23:23:00.908Z,74.28
2022-11-03T23:25:27.523Z,74.23
2022-11-03T23:27:57.028Z,74.24
2022-11-03T23:30:23.658Z,73.93
2022-11-03T23:32:50.297Z,73.37
2022-11-03T23:35:17.312Z,72.73
2022-11-03T23:37:43.902Z,72.79
2022-11-03T23:40:11.313Z,72.61
2022-11-03T23:42:37.844Z,72.57
2022-11-03T23:45:23.497Z,72.08
2022-11-03T23:48:08.842Z,72.53
2022-11-03T23:50:38.499Z,72.21
2022-11-03T23:53:05.223Z,72.30
2022-11-03T23:55:53.510Z,71.77
2022-11-03T23:58:20.436Z,71.68
